sensor_id;sensor_type;location;lat;lon;timestamp;temperature;humidity
52127;DHT22;38120;53.176;6.614;2023-12-29T00:02:15;10.00;99.90
52127;DHT22;38120;53.176;6.614;2023-12-29T00:04:41;10.00;99.90
52127;DHT22;38120;53.176;6.614;2023-12-29T00:07:07;10.00;99.90
52127;DHT22;38120;53.176;6.614;2023-12-29T00:09:33;10.00;99.90
52127;DHT22;38120;53.176;6.614;2023-12-29T00:12:06;10.00;99.90
52127;DHT22;38120;53.176;6.614;2023-12-29T00:14:32;10.00;99.90
52127;DHT22;38120;53.176;6.614;2023-12-29T00:16:58;10.00;99.90
52127;DHT22;38120;53.176;6.614;2023-12-29T00:19:29;10.00;99.90
52127;DHT22;38120;53.176;6.614;2023-12-29T00:21:55;10.10;99.90
52127;DHT22;38120;53.176;6.614;2023-12-29T00:24:21;10.10;99.90
52127;DHT22;38120;53.176;6.614;2023-12-29T00:26:46;10.00;99.90
52127;DHT22;38120;53.176;6.614;2023-12-29T00:29:14;10.00;99.90
52127;DHT22;38120;53.176;6.614;2023-12-29T00:31:40;10.10;99.90
52127;DHT22;38120;53.176;6.614;2023-12-29T00:34:07;10.10;99.90
52127;DHT22;38120;53.176;6.614;2023-12-29T00:36:32;10.10;99.90
52127;DHT22;38120;53.176;6.614;2023-12-29T00:38:58;10.10;99.90
52127;DHT22;38120;53.176;6.614;2023-12-29T00:41:24;10.10;99.90
52127;DHT22;38120;53.176;6.614;2023-12-29T00:43:49;10.10;99.90
52127;DHT22;38120;53.176;6.614;2023-12-29T00:46:15;10.10;99.90
52127;DHT22;38120;53.176;6.614;2023-12-29T00:48:43;10.10;99.90
52127;DHT22;38120;53.176;6.614;2023-12-29T00:51:09;10.10;99.90
52127;DHT22;38120;53.176;6.614;2023-12-29T00:53:35;10.00;99.90
52127;DHT22;38120;53.176;6.614;2023-12-29T00:56:01;9.90;99.90
52127;DHT22;38120;53.176;6.614;2023-12-29T00:58:27;9.90;99.90
52127;DHT22;38120;53.176;6.614;2023-12-29T01:00:53;9.90;99.90
52127;DHT22;38120;53.176;6.614;2023-12-29T01:03:18;9.90;99.90
52127;DHT22;38120;53.176;6.614;2023-12-29T01:05:45;9.90;99.90
52127;DHT22;38120;53.176;6.614;2023-12-29T01:08:20;9.90;99.90
52127;DHT22;38120;53.176;6.614;2023-12-29T01:10:48;9.80;99.90
52127;DHT22;38120;53.176;6.614;2023-12-29T01:13:13;9.80;99.90
52127;DHT22;38120;53.176;6.614;2023-12-29T01:15:39;9.80;99.90
52127;DHT22;38120;53.176;6.614;2023-12-29T01:18:09;9.70;99.90
52127;DHT22;38120;53.176;6.614;2023-12-29T01:20:35;9.90;99.90
52127;DHT22;38120;53.176;6.614;2023-12-29T01:23:01;9.70;99.90
52127;DHT22;38120;53.176;6.614;2023-12-29T01:25:26;9.70;99.90
52127;DHT22;38120;53.176;6.614;2023-12-29T01:27:52;9.70;99.90
52127;DHT22;38120;53.176;6.614;2023-12-29T01:30:29;9.70;99.90
52127;DHT22;38120;53.176;6.614;2023-12-29T01:32:54;9.70;99.90
52127;DHT22;38120;53.176;6.614;2023-12-29T01:35:23;9.60;99.90
52127;DHT22;38120;53.176;6.614;2023-12-29T01:37:49;9.70;99.90
52127;DHT22;38120;53.176;6.614;2023-12-29T01:40:14;9.70;99.90
52127;DHT22;38120;53.176;6.614;2023-12-29T01:42:41;10.20;99.90
52127;DHT22;38120;53.176;6.614;2023-12-29T01:45:22;9.70;99.90
52127;DHT22;38120;53.176;6.614;2023-12-29T01:47:49;9.60;99.90
52127;DHT22;38120;53.176;6.614;2023-12-29T01:50:17;9.60;99.90
52127;DHT22;38120;53.176;6.614;2023-12-29T01:52:44;9.60;99.90
52127;DHT22;38120;53.176;6.614;2023-12-29T01:55:17;9.50;99.90
52127;DHT22;38120;53.176;6.614;2023-12-29T01:57:44;9.50;99.90
52127;DHT22;38120;53.176;6.614;2023-12-29T02:00:11;9.30;99.90
52127;DHT22;38120;53.176;6.614;2023-12-29T02:02:37;9.20;99.90
52127;DHT22;38120;53.176;6.614;2023-12-29T02:05:03;9.20;99.90
52127;DHT22;38120;53.176;6.614;2023-12-29T02:07:29;9.20;99.90
52127;DHT22;38120;53.176;6.614;2023-12-29T02:09:58;9.10;99.90
52127;DHT22;38120;53.176;6.614;2023-12-29T02:12:25;9.00;99.90
52127;DHT22;38120;53.176;6.614;2023-12-29T02:14:51;8.90;99.90
52127;DHT22;38120;53.176;6.614;2023-12-29T02:17:27;8.90;99.90
52127;DHT22;38120;53.176;6.614;2023-12-29T02:19:55;8.70;99.90
52127;DHT22;38120;53.176;6.614;2023-12-29T02:22:21;8.40;99.90
52127;DHT22;38120;53.176;6.614;2023-12-29T02:24:49;8.50;99.90
52127;DHT22;38120;53.176;6.614;2023-12-29T02:30:20;8.00;99.90
52127;DHT22;38120;53.176;6.614;2023-12-29T02:32:49;7.90;99.90
52127;DHT22;38120;53.176;6.614;2023-12-29T02:35:28;7.90;99.90
52127;DHT22;38120;53.176;6.614;2023-12-29T02:37:58;8.50;99.90
52127;DHT22;38120;53.176;6.614;2023-12-29T02:40:25;8.30;99.90
52127;DHT22;38120;53.176;6.614;2023-12-29T02:42:51;8.20;99.90
52127;DHT22;38120;53.176;6.614;2023-12-29T02:45:17;8.00;99.90
52127;DHT22;38120;53.176;6.614;2023-12-29T02:47:43;8.10;99.90
52127;DHT22;38120;53.176;6.614;2023-12-29T02:50:10;8.20;99.90
52127;DHT22;38120;53.176;6.614;2023-12-29T02:52:36;8.60;99.90
52127;DHT22;38120;53.176;6.614;2023-12-29T02:55:02;8.30;99.90
52127;DHT22;38120;53.176;6.614;2023-12-29T02:57:29;8.30;99.90
52127;DHT22;38120;53.176;6.614;2023-12-29T02:59:55;8.30;99.90
52127;DHT22;38120;53.176;6.614;2023-12-29T03:02:21;8.50;99.90
52127;DHT22;38120;53.176;6.614;2023-12-29T03:04:47;8.60;99.90
52127;DHT22;38120;53.176;6.614;2023-12-29T03:07:13;8.70;99.90
52127;DHT22;38120;53.176;6.614;2023-12-29T03:09:38;8.80;99.90
52127;DHT22;38120;53.176;6.614;2023-12-29T03:12:05;8.90;99.90
52127;DHT22;38120;53.176;6.614;2023-12-29T03:14:31;9.00;99.90
52127;DHT22;38120;53.176;6.614;2023-12-29T03:16:57;9.00;99.90
52127;DHT22;38120;53.176;6.614;2023-12-29T03:19:23;9.10;99.90
52127;DHT22;38120;53.176;6.614;2023-12-29T03:21:48;9.20;99.90
52127;DHT22;38120;53.176;6.614;2023-12-29T03:24:14;9.20;99.90
52127;DHT22;38120;53.176;6.614;2023-12-29T03:26:40;9.20;99.90
52127;DHT22;38120;53.176;6.614;2023-12-29T03:29:06;9.30;99.90
52127;DHT22;38120;53.176;6.614;2023-12-29T03:31:32;9.30;99.90
52127;DHT22;38120;53.176;6.614;2023-12-29T03:34:00;9.30;99.90
52127;DHT22;38120;53.176;6.614;2023-12-29T03:36:26;9.30;99.90
52127;DHT22;38120;53.176;6.614;2023-12-29T03:38:52;9.30;99.90
52127;DHT22;38120;53.176;6.614;2023-12-29T03:41:17;9.30;99.90
52127;DHT22;38120;53.176;6.614;2023-12-29T03:43:44;9.30;99.90
52127;DHT22;38120;53.176;6.614;2023-12-29T03:46:20;9.30;99.90
52127;DHT22;38120;53.176;6.614;2023-12-29T03:48:46;9.20;99.90
52127;DHT22;38120;53.176;6.614;2023-12-29T03:51:13;9.40;99.90
52127;DHT22;38120;53.176;6.614;2023-12-29T03:53:39;9.40;99.90
52127;DHT22;38120;53.176;6.614;2023-12-29T03:56:08;9.30;99.90
52127;DHT22;38120;53.176;6.614;2023-12-29T03:58:35;9.30;99.90
52127;DHT22;38120;53.176;6.614;2023-12-29T04:01:11;10.20;99.90
52127;DHT22;38120;53.176;6.614;2023-12-29T04:03:43;9.30;99.90
52127;DHT22;38120;53.176;6.614;2023-12-29T04:06:09;9.30;99.90
52127;DHT22;38120;53.176;6.614;2023-12-29T04:08:35;9.40;99.90
52127;DHT22;38120;53.176;6.614;2023-12-29T04:11:04;9.30;99.90
52127;DHT22;38120;53.176;6.614;2023-12-29T04:13:30;9.20;99.90
52127;DHT22;38120;53.176;6.614;2023-12-29T04:15:56;9.30;99.90
52127;DHT22;38120;53.176;6.614;2023-12-29T04:18:23;9.20;99.90
52127;DHT22;38120;53.176;6.614;2023-12-29T04:20:49;9.30;99.90
52127;DHT22;38120;53.176;6.614;2023-12-29T04:23:15;9.30;99.90
52127;DHT22;38120;53.176;6.614;2023-12-29T04:25:44;9.30;99.90
52127;DHT22;38120;53.176;6.614;2023-12-29T04:28:10;9.40;99.90
52127;DHT22;38120;53.176;6.614;2023-12-29T04:30:35;9.40;99.90
52127;DHT22;38120;53.176;6.614;2023-12-29T04:33:01;9.40;99.90
52127;DHT22;38120;53.176;6.614;2023-12-29T04:35:27;9.40;99.90
52127;DHT22;38120;53.176;6.614;2023-12-29T04:37:52;9.40;99.90
52127;DHT22;38120;53.176;6.614;2023-12-29T04:40:18;9.40;99.90
52127;DHT22;38120;53.176;6.614;2023-12-29T04:42:44;9.40;99.90
52127;DHT22;38120;53.176;6.614;2023-12-29T04:45:10;9.50;99.90
52127;DHT22;38120;53.176;6.614;2023-12-29T04:47:37;9.40;99.90
52127;DHT22;38120;53.176;6.614;2023-12-29T04:50:03;9.50;99.90
52127;DHT22;38120;53.176;6.614;2023-12-29T04:52:31;9.40;99.90
52127;DHT22;38120;53.176;6.614;2023-12-29T04:54:56;9.40;99.90
52127;DHT22;38120;53.176;6.614;2023-12-29T04:57:22;9.30;99.90
52127;DHT22;38120;53.176;6.614;2023-12-29T04:59:48;9.40;99.90
52127;DHT22;38120;53.176;6.614;2023-12-29T05:02:13;9.30;99.90
52127;DHT22;38120;53.176;6.614;2023-12-29T05:04:39;9.40;99.90
52127;DHT22;38120;53.176;6.614;2023-12-29T05:07:07;9.30;99.90
52127;DHT22;38120;53.176;6.614;2023-12-29T05:09:33;9.30;99.90
52127;DHT22;38120;53.176;6.614;2023-12-29T05:11:58;9.30;99.90
52127;DHT22;38120;53.176;6.614;2023-12-29T05:14:24;9.30;99.90
52127;DHT22;38120;53.176;6.614;2023-12-29T05:16:49;9.30;99.90
52127;DHT22;38120;53.176;6.614;2023-12-29T05:19:15;9.30;99.90
52127;DHT22;38120;53.176;6.614;2023-12-29T05:21:41;9.40;99.90
52127;DHT22;38120;53.176;6.614;2023-12-29T05:24:07;9.40;99.90
52127;DHT22;38120;53.176;6.614;2023-12-29T05:26:33;9.40;99.90
52127;DHT22;38120;53.176;6.614;2023-12-29T05:28:59;9.40;99.90
52127;DHT22;38120;53.176;6.614;2023-12-29T05:31:24;9.50;99.90
52127;DHT22;38120;53.176;6.614;2023-12-29T05:33:50;9.50;99.90
52127;DHT22;38120;53.176;6.614;2023-12-29T05:36:16;9.50;99.90
52127;DHT22;38120;53.176;6.614;2023-12-29T05:38:45;9.50;99.90
52127;DHT22;38120;53.176;6.614;2023-12-29T05:41:13;9.50;99.90
52127;DHT22;38120;53.176;6.614;2023-12-29T05:43:39;9.50;99.90
52127;DHT22;38120;53.176;6.614;2023-12-29T05:46:09;9.50;99.90
52127;DHT22;38120;53.176;6.614;2023-12-29T05:48:37;9.50;99.90
52127;DHT22;38120;53.176;6.614;2023-12-29T05:51:10;9.40;99.90
52127;DHT22;38120;53.176;6.614;2023-12-29T05:53:36;9.50;99.90
52127;DHT22;38120;53.176;6.614;2023-12-29T05:56:02;9.50;99.90
52127;DHT22;38120;53.176;6.614;2023-12-29T05:58:28;9.50;99.90
52127;DHT22;38120;53.176;6.614;2023-12-29T06:00:57;9.50;99.90
52127;DHT22;38120;53.176;6.614;2023-12-29T06:03:24;9.40;99.90
52127;DHT22;38120;53.176;6.614;2023-12-29T06:05:50;9.50;99.90
52127;DHT22;38120;53.176;6.614;2023-12-29T06:08:16;9.50;99.90
52127;DHT22;38120;53.176;6.614;2023-12-29T06:10:41;9.50;99.90
52127;DHT22;38120;53.176;6.614;2023-12-29T06:13:07;9.40;99.90
52127;DHT22;38120;53.176;6.614;2023-12-29T06:15:33;9.50;99.90
52127;DHT22;38120;53.176;6.614;2023-12-29T06:17:59;9.50;99.90
52127;DHT22;38120;53.176;6.614;2023-12-29T06:20:25;9.50;99.90
52127;DHT22;38120;53.176;6.614;2023-12-29T06:22:51;9.50;99.90
52127;DHT22;38120;53.176;6.614;2023-12-29T06:25:17;9.40;99.90
52127;DHT22;38120;53.176;6.614;2023-12-29T06:27:43;9.40;99.90
52127;DHT22;38120;53.176;6.614;2023-12-29T06:30:09;9.30;99.90
52127;DHT22;38120;53.176;6.614;2023-12-29T06:32:36;9.30;99.90
52127;DHT22;38120;53.176;6.614;2023-12-29T06:35:02;9.30;99.90
52127;DHT22;38120;53.176;6.614;2023-12-29T06:37:28;9.20;99.90
52127;DHT22;38120;53.176;6.614;2023-12-29T06:39:54;9.20;99.90
52127;DHT22;38120;53.176;6.614;2023-12-29T06:42:20;9.20;99.90
52127;DHT22;38120;53.176;6.614;2023-12-29T06:44:48;9.10;99.90
52127;DHT22;38120;53.176;6.614;2023-12-29T06:47:14;8.90;99.90
52127;DHT22;38120;53.176;6.614;2023-12-29T06:49:40;8.90;99.90
52127;DHT22;38120;53.176;6.614;2023-12-29T06:52:06;8.90;99.90
52127;DHT22;38120;53.176;6.614;2023-12-29T06:54:33;8.90;99.90
52127;DHT22;38120;53.176;6.614;2023-12-29T06:57:01;8.80;99.90
52127;DHT22;38120;53.176;6.614;2023-12-29T06:59:27;8.80;99.90
52127;DHT22;38120;53.176;6.614;2023-12-29T07:01:53;8.80;99.90
52127;DHT22;38120;53.176;6.614;2023-12-29T07:04:18;8.90;99.90
52127;DHT22;38120;53.176;6.614;2023-12-29T07:06:44;8.90;99.90
52127;DHT22;38120;53.176;6.614;2023-12-29T07:09:10;8.90;99.90
52127;DHT22;38120;53.176;6.614;2023-12-29T07:11:36;8.90;99.90
52127;DHT22;38120;53.176;6.614;2023-12-29T07:14:02;8.90;99.90
52127;DHT22;38120;53.176;6.614;2023-12-29T07:16:28;9.00;99.90
52127;DHT22;38120;53.176;6.614;2023-12-29T07:18:54;9.00;99.90
52127;DHT22;38120;53.176;6.614;2023-12-29T07:21:21;9.00;99.90
52127;DHT22;38120;53.176;6.614;2023-12-29T07:23:47;9.10;99.90
52127;DHT22;38120;53.176;6.614;2023-12-29T07:26:12;9.10;99.90
52127;DHT22;38120;53.176;6.614;2023-12-29T07:28:38;9.10;99.90
52127;DHT22;38120;53.176;6.614;2023-12-29T07:31:04;9.00;99.90
52127;DHT22;38120;53.176;6.614;2023-12-29T07:33:30;9.00;99.90
52127;DHT22;38120;53.176;6.614;2023-12-29T07:35:56;9.00;99.90
52127;DHT22;38120;53.176;6.614;2023-12-29T07:38:22;9.00;99.90
52127;DHT22;38120;53.176;6.614;2023-12-29T07:40:47;8.90;99.90
52127;DHT22;38120;53.176;6.614;2023-12-29T07:43:14;8.90;99.90
52127;DHT22;38120;53.176;6.614;2023-12-29T07:45:39;8.90;99.90
52127;DHT22;38120;53.176;6.614;2023-12-29T07:48:06;8.90;99.90
52127;DHT22;38120;53.176;6.614;2023-12-29T07:50:32;8.90;99.90
52127;DHT22;38120;53.176;6.614;2023-12-29T07:52:58;8.90;99.90
52127;DHT22;38120;53.176;6.614;2023-12-29T07:55:26;8.90;99.90
52127;DHT22;38120;53.176;6.614;2023-12-29T07:57:51;8.90;99.90
52127;DHT22;38120;53.176;6.614;2023-12-29T08:00:18;9.00;99.90
52127;DHT22;38120;53.176;6.614;2023-12-29T08:02:43;9.00;99.90
52127;DHT22;38120;53.176;6.614;2023-12-29T08:05:10;9.10;99.90
52127;DHT22;38120;53.176;6.614;2023-12-29T08:07:36;9.10;99.90
52127;DHT22;38120;53.176;6.614;2023-12-29T08:10:05;9.10;99.90
52127;DHT22;38120;53.176;6.614;2023-12-29T08:12:31;9.10;99.90
52127;DHT22;38120;53.176;6.614;2023-12-29T08:14:59;9.10;99.90
52127;DHT22;38120;53.176;6.614;2023-12-29T08:17:25;9.10;99.90
52127;DHT22;38120;53.176;6.614;2023-12-29T08:19:51;9.10;99.90
52127;DHT22;38120;53.176;6.614;2023-12-29T08:22:18;9.10;99.90
52127;DHT22;38120;53.176;6.614;2023-12-29T08:24:44;9.10;99.90
52127;DHT22;38120;53.176;6.614;2023-12-29T08:27:12;9.10;99.90
52127;DHT22;38120;53.176;6.614;2023-12-29T08:29:38;9.20;99.90
52127;DHT22;38120;53.176;6.614;2023-12-29T08:32:03;9.20;99.90
52127;DHT22;38120;53.176;6.614;2023-12-29T08:34:29;9.30;99.90
52127;DHT22;38120;53.176;6.614;2023-12-29T08:36:55;9.20;99.90
52127;DHT22;38120;53.176;6.614;2023-12-29T08:39:22;9.20;99.90
52127;DHT22;38120;53.176;6.614;2023-12-29T08:41:50;9.20;99.90
52127;DHT22;38120;53.176;6.614;2023-12-29T08:44:16;9.20;99.90
52127;DHT22;38120;53.176;6.614;2023-12-29T08:46:42;9.20;99.90
52127;DHT22;38120;53.176;6.614;2023-12-29T08:49:08;9.20;99.90
52127;DHT22;38120;53.176;6.614;2023-12-29T08:51:34;9.20;99.90
52127;DHT22;38120;53.176;6.614;2023-12-29T08:53:59;9.20;99.90
52127;DHT22;38120;53.176;6.614;2023-12-29T08:56:25;9.30;99.90
52127;DHT22;38120;53.176;6.614;2023-12-29T08:58:51;9.20;99.90
52127;DHT22;38120;53.176;6.614;2023-12-29T09:01:18;9.20;99.90
52127;DHT22;38120;53.176;6.614;2023-12-29T09:03:44;9.20;99.90
52127;DHT22;38120;53.176;6.614;2023-12-29T09:06:10;9.20;99.90
52127;DHT22;38120;53.176;6.614;2023-12-29T09:08:36;9.30;99.90
52127;DHT22;38120;53.176;6.614;2023-12-29T09:11:02;9.30;99.90
52127;DHT22;38120;53.176;6.614;2023-12-29T09:13:28;9.30;99.90
52127;DHT22;38120;53.176;6.614;2023-12-29T09:15:57;9.20;99.90
52127;DHT22;38120;53.176;6.614;2023-12-29T09:18:22;9.30;99.90
52127;DHT22;38120;53.176;6.614;2023-12-29T09:20:49;9.30;99.90
52127;DHT22;38120;53.176;6.614;2023-12-29T09:23:15;9.40;99.90
52127;DHT22;38120;53.176;6.614;2023-12-29T09:25:41;9.40;99.90
52127;DHT22;38120;53.176;6.614;2023-12-29T09:28:07;9.40;99.90
52127;DHT22;38120;53.176;6.614;2023-12-29T09:30:33;9.30;99.90
52127;DHT22;38120;53.176;6.614;2023-12-29T09:32:58;9.40;99.90
52127;DHT22;38120;53.176;6.614;2023-12-29T09:35:24;9.30;99.90
52127;DHT22;38120;53.176;6.614;2023-12-29T09:37:50;9.40;99.90
52127;DHT22;38120;53.176;6.614;2023-12-29T09:40:16;9.50;99.90
52127;DHT22;38120;53.176;6.614;2023-12-29T09:42:43;9.60;99.90
52127;DHT22;38120;53.176;6.614;2023-12-29T09:45:13;9.60;99.90
52127;DHT22;38120;53.176;6.614;2023-12-29T09:47:40;9.60;99.90
52127;DHT22;38120;53.176;6.614;2023-12-29T09:50:16;9.70;99.90
52127;DHT22;38120;53.176;6.614;2023-12-29T09:52:43;9.70;99.90
52127;DHT22;38120;53.176;6.614;2023-12-29T09:55:09;9.60;99.90
52127;DHT22;38120;53.176;6.614;2023-12-29T09:57:37;9.70;99.90
52127;DHT22;38120;53.176;6.614;2023-12-29T10:00:04;9.70;99.90
52127;DHT22;38120;53.176;6.614;2023-12-29T10:02:31;9.70;99.90
52127;DHT22;38120;53.176;6.614;2023-12-29T10:04:59;9.70;99.90
52127;DHT22;38120;53.176;6.614;2023-12-29T10:07:28;9.70;99.90
52127;DHT22;38120;53.176;6.614;2023-12-29T10:09:56;9.70;99.90
52127;DHT22;38120;53.176;6.614;2023-12-29T10:12:24;9.70;99.90
52127;DHT22;38120;53.176;6.614;2023-12-29T10:23:59;9.70;99.90
52127;DHT22;38120;53.176;6.614;2023-12-29T10:26:28;9.70;99.90
52127;DHT22;38120;53.176;6.614;2023-12-29T10:28:55;9.80;99.90
52127;DHT22;38120;53.176;6.614;2023-12-29T10:31:22;9.70;99.90
52127;DHT22;38120;53.176;6.614;2023-12-29T10:33:48;9.80;99.90
52127;DHT22;38120;53.176;6.614;2023-12-29T10:36:16;9.80;99.90
52127;DHT22;38120;53.176;6.614;2023-12-29T10:38:43;9.80;99.90
52127;DHT22;38120;53.176;6.614;2023-12-29T10:41:14;9.90;99.90
52127;DHT22;38120;53.176;6.614;2023-12-29T10:43:41;9.90;99.90
52127;DHT22;38120;53.176;6.614;2023-12-29T10:46:08;9.80;99.90
52127;DHT22;38120;53.176;6.614;2023-12-29T10:48:34;9.70;99.90
52127;DHT22;38120;53.176;6.614;2023-12-29T10:51:00;9.70;99.90
52127;DHT22;38120;53.176;6.614;2023-12-29T10:53:30;8.40;99.90
52127;DHT22;38120;53.176;6.614;2023-12-29T10:55:56;9.70;99.90
52127;DHT22;38120;53.176;6.614;2023-12-29T10:58:25;9.70;99.90
52127;DHT22;38120;53.176;6.614;2023-12-29T11:00:53;9.60;99.90
52127;DHT22;38120;53.176;6.614;2023-12-29T11:03:19;9.60;99.90
52127;DHT22;38120;53.176;6.614;2023-12-29T11:05:45;9.60;99.90
52127;DHT22;38120;53.176;6.614;2023-12-29T11:08:19;9.80;99.90
52127;DHT22;38120;53.176;6.614;2023-12-29T11:10:46;9.70;99.90
52127;DHT22;38120;53.176;6.614;2023-12-29T11:13:12;9.80;99.90
52127;DHT22;38120;53.176;6.614;2023-12-29T11:15:43;9.80;99.90
52127;DHT22;38120;53.176;6.614;2023-12-29T11:18:16;9.80;99.90
52127;DHT22;38120;53.176;6.614;2023-12-29T11:20:44;9.90;99.90
52127;DHT22;38120;53.176;6.614;2023-12-29T11:23:11;9.80;99.90
52127;DHT22;38120;53.176;6.614;2023-12-29T11:25:43;9.80;99.90
52127;DHT22;38120;53.176;6.614;2023-12-29T11:28:10;9.70;99.90
52127;DHT22;38120;53.176;6.614;2023-12-29T11:30:39;9.70;99.90
52127;DHT22;38120;53.176;6.614;2023-12-29T11:33:41;9.60;99.90
52127;DHT22;38120;53.176;6.614;2023-12-29T11:36:28;9.60;99.90
52127;DHT22;38120;53.176;6.614;2023-12-29T11:42:03;9.80;99.90
52127;DHT22;38120;53.176;6.614;2023-12-29T11:44:30;9.90;99.90
52127;DHT22;38120;53.176;6.614;2023-12-29T11:46:56;10.00;99.90
52127;DHT22;38120;53.176;6.614;2023-12-29T11:49:23;10.10;99.90
52127;DHT22;38120;53.176;6.614;2023-12-29T11:51:49;10.20;99.90
52127;DHT22;38120;53.176;6.614;2023-12-29T11:54:25;10.10;1.00
52127;DHT22;38120;53.176;6.614;2023-12-29T11:56:52;10.10;99.90
52127;DHT22;38120;53.176;6.614;2023-12-29T11:59:23;10.10;1.00
52127;DHT22;38120;53.176;6.614;2023-12-29T12:01:58;10.10;99.90
52127;DHT22;38120;53.176;6.614;2023-12-29T12:10:28;10.10;1.00
52127;DHT22;38120;53.176;6.614;2023-12-29T12:12:56;10.00;99.90
52127;DHT22;38120;53.176;6.614;2023-12-29T12:17:54;10.00;99.90
52127;DHT22;38120;53.176;6.614;2023-12-29T12:20:20;9.80;99.90
52127;DHT22;38120;53.176;6.614;2023-12-29T12:22:50;9.70;99.90
52127;DHT22;38120;53.176;6.614;2023-12-29T12:25:23;9.60;85.10
52127;DHT22;38120;53.176;6.614;2023-12-29T12:27:51;9.60;99.90
52127;DHT22;38120;53.176;6.614;2023-12-29T12:30:20;9.60;99.90
52127;DHT22;38120;53.176;6.614;2023-12-29T12:32:56;9.50;99.90
52127;DHT22;38120;53.176;6.614;2023-12-29T12:35:22;9.50;1.00
52127;DHT22;38120;53.176;6.614;2023-12-29T12:37:48;9.40;99.90
52127;DHT22;38120;53.176;6.614;2023-12-29T12:40:26;9.30;99.90
52127;DHT22;38120;53.176;6.614;2023-12-29T12:42:55;9.40;99.90
52127;DHT22;38120;53.176;6.614;2023-12-29T12:45:21;9.30;1.00
52127;DHT22;38120;53.176;6.614;2023-12-29T12:47:53;9.30;1.00
52127;DHT22;38120;53.176;6.614;2023-12-29T12:50:20;9.30;1.00
52127;DHT22;38120;53.176;6.614;2023-12-29T12:52:46;9.10;99.90
52127;DHT22;38120;53.176;6.614;2023-12-29T12:55:12;9.10;1.00
52127;DHT22;38120;53.176;6.614;2023-12-29T12:57:39;9.10;1.00
52127;DHT22;38120;53.176;6.614;2023-12-29T13:00:06;9.00;95.40
52127;DHT22;38120;53.176;6.614;2023-12-29T13:02:40;9.00;99.90
52127;DHT22;38120;53.176;6.614;2023-12-29T13:05:06;9.00;99.90
52127;DHT22;38120;53.176;6.614;2023-12-29T13:07:34;9.00;99.90
52127;DHT22;38120;53.176;6.614;2023-12-29T13:10:01;9.00;99.90
52127;DHT22;38120;53.176;6.614;2023-12-29T13:12:27;8.90;99.90
52127;DHT22;38120;53.176;6.614;2023-12-29T13:14:53;8.90;99.90
52127;DHT22;38120;53.176;6.614;2023-12-29T13:17:30;8.90;99.90
52127;DHT22;38120;53.176;6.614;2023-12-29T13:19:58;8.90;1.00
52127;DHT22;38120;53.176;6.614;2023-12-29T13:22:24;9.00;99.90
52127;DHT22;38120;53.176;6.614;2023-12-29T13:24:59;8.90;99.90
52127;DHT22;38120;53.176;6.614;2023-12-29T13:27:25;9.30;97.50
52127;DHT22;38120;53.176;6.614;2023-12-29T13:29:51;8.90;99.90
52127;DHT22;38120;53.176;6.614;2023-12-29T13:32:21;9.10;99.90
52127;DHT22;38120;53.176;6.614;2023-12-29T13:40:22;9.00;99.90
52127;DHT22;38120;53.176;6.614;2023-12-29T13:42:52;9.00;99.90
52127;DHT22;38120;53.176;6.614;2023-12-29T13:45:19;9.30;99.90
52127;DHT22;38120;53.176;6.614;2023-12-29T13:47:46;9.00;99.90
52127;DHT22;38120;53.176;6.614;2023-12-29T13:50:12;9.30;1.00
52127;DHT22;38120;53.176;6.614;2023-12-29T13:52:38;9.00;1.00
52127;DHT22;38120;53.176;6.614;2023-12-29T13:55:04;9.00;1.00
52127;DHT22;38120;53.176;6.614;2023-12-29T13:57:35;9.00;1.00
52127;DHT22;38120;53.176;6.614;2023-12-29T14:00:18;8.90;1.00
52127;DHT22;38120;53.176;6.614;2023-12-29T14:08:26;8.90;57.50
52127;DHT22;38120;53.176;6.614;2023-12-29T14:10:52;8.90;99.90
52127;DHT22;38120;53.176;6.614;2023-12-29T14:13:19;8.90;1.00
52127;DHT22;38120;53.176;6.614;2023-12-29T14:15:46;8.90;99.90
52127;DHT22;38120;53.176;6.614;2023-12-29T14:20:46;9.00;99.90
52127;DHT22;38120;53.176;6.614;2023-12-29T14:23:13;8.90;1.00
52127;DHT22;38120;53.176;6.614;2023-12-29T14:25:39;8.90;28.30
52127;DHT22;38120;53.176;6.614;2023-12-29T14:28:15;8.90;99.90
52127;DHT22;38120;53.176;6.614;2023-12-29T14:30:42;8.90;99.90
52127;DHT22;38120;53.176;6.614;2023-12-29T14:33:08;8.90;99.90
52127;DHT22;38120;53.176;6.614;2023-12-29T14:35:34;8.80;99.90
52127;DHT22;38120;53.176;6.614;2023-12-29T14:38:00;9.10;1.00
52127;DHT22;38120;53.176;6.614;2023-12-29T14:40:26;8.80;1.00
52127;DHT22;38120;53.176;6.614;2023-12-29T14:42:53;8.80;1.00
52127;DHT22;38120;53.176;6.614;2023-12-29T14:45:19;8.80;1.00
52127;DHT22;38120;53.176;6.614;2023-12-29T14:47:45;9.00;1.00
52127;DHT22;38120;53.176;6.614;2023-12-29T14:50:11;8.70;71.60
52127;DHT22;38120;53.176;6.614;2023-12-29T14:52:37;8.70;99.90
52127;DHT22;38120;53.176;6.614;2023-12-29T14:55:04;9.00;99.90
52127;DHT22;38120;53.176;6.614;2023-12-29T14:57:30;8.70;1.00
52127;DHT22;38120;53.176;6.614;2023-12-29T15:00:07;8.70;99.90
52127;DHT22;38120;53.176;6.614;2023-12-29T15:02:34;8.70;99.90
52127;DHT22;38120;53.176;6.614;2023-12-29T15:05:04;8.70;99.90
52127;DHT22;38120;53.176;6.614;2023-12-29T15:07:30;8.70;1.00
52127;DHT22;38120;53.176;6.614;2023-12-29T15:09:56;8.70;71.10
52127;DHT22;38120;53.176;6.614;2023-12-29T15:12:23;8.70;1.00
52127;DHT22;38120;53.176;6.614;2023-12-29T15:14:49;8.70;95.30
52127;DHT22;38120;53.176;6.614;2023-12-29T15:17:14;8.70;99.90
52127;DHT22;38120;53.176;6.614;2023-12-29T15:19:40;8.70;99.90
52127;DHT22;38120;53.176;6.614;2023-12-29T15:22:06;8.70;99.90
52127;DHT22;38120;53.176;6.614;2023-12-29T15:24:34;8.70;72.20
52127;DHT22;38120;53.176;6.614;2023-12-29T15:27:00;8.70;1.00
52127;DHT22;38120;53.176;6.614;2023-12-29T15:29:28;8.70;1.00
52127;DHT22;38120;53.176;6.614;2023-12-29T15:32:03;8.60;1.00
52127;DHT22;38120;53.176;6.614;2023-12-29T15:34:28;8.70;5.10
52127;DHT22;38120;53.176;6.614;2023-12-29T15:36:54;8.70;1.00
52127;DHT22;38120;53.176;6.614;2023-12-29T15:39:24;8.70;51.50
52127;DHT22;38120;53.176;6.614;2023-12-29T15:41:50;8.70;99.90
52127;DHT22;38120;53.176;6.614;2023-12-29T15:44:16;8.70;99.90
52127;DHT22;38120;53.176;6.614;2023-12-29T15:46:45;8.70;99.90
52127;DHT22;38120;53.176;6.614;2023-12-29T15:49:10;8.80;24.50
52127;DHT22;38120;53.176;6.614;2023-12-29T15:51:36;8.70;97.00
52127;DHT22;38120;53.176;6.614;2023-12-29T15:54:02;8.80;99.90
52127;DHT22;38120;53.176;6.614;2023-12-29T15:56:27;8.70;1.00
52127;DHT22;38120;53.176;6.614;2023-12-29T15:58:53;8.70;46.20
52127;DHT22;38120;53.176;6.614;2023-12-29T16:01:22;8.80;99.90
52127;DHT22;38120;53.176;6.614;2023-12-29T16:03:53;8.80;99.90
52127;DHT22;38120;53.176;6.614;2023-12-29T16:06:25;8.70;99.90
52127;DHT22;38120;53.176;6.614;2023-12-29T16:08:51;8.70;99.90
52127;DHT22;38120;53.176;6.614;2023-12-29T16:11:26;8.80;99.90
52127;DHT22;38120;53.176;6.614;2023-12-29T16:13:53;8.70;80.60
52127;DHT22;38120;53.176;6.614;2023-12-29T16:16:19;8.70;99.90
52127;DHT22;38120;53.176;6.614;2023-12-29T16:18:46;8.70;99.90
52127;DHT22;38120;53.176;6.614;2023-12-29T16:21:12;8.70;99.90
52127;DHT22;38120;53.176;6.614;2023-12-29T16:23:39;8.60;99.90